Terminal Aerodrome Forecast
Issued by NWS

Home | Current Version | Previous Version | Text Only | Print | Product List | Glossary On
Versions: 1 2 3 4 5 6 7 8 9 10 11 12 13 14 15 16 17 18 19
664
FTUS44 KLZK 241120
TAFPBF
TAF
KPBF 241120Z 2412/2512 29005KT P6SM SCT025 BKN050
      TEMPO 2412/2414 BKN025
     FM241500 34008KT P6SM SCT030
     FM250200 VRB03KT P6SM SCT250=

USA.gov is the U.S. government's official web portal to all federal, state and local government web resources and services.